createdAt,value
2023-11-23T00:00:16.737Z,100125.22
2023-11-23T00:02:43.987Z,100122.75
2023-11-23T00:05:12.191Z,100116.72
2023-11-23T00:07:39.763Z,100134.50
2023-11-23T00:10:08.134Z,100117.56
2023-11-23T00:12:35.056Z,100132.09
2023-11-23T00:15:02.676Z,100139.78
2023-11-23T00:17:31.660Z,100132.13
2023-11-23T00:19:59.533Z,100147.53
2023-11-23T00:22:27.470Z,100129.56
2023-11-23T00:24:57.726Z,100118.41
2023-11-23T00:27:25.813Z,100125.28
2023-11-23T00:29:52.839Z,100122.75
2023-11-23T00:32:20.553Z,100103.84
2023-11-23T00:34:47.675Z,100112.47
2023-11-23T00:37:15.727Z,100113.34
2023-11-23T00:39:42.693Z,100110.69
2023-11-23T00:42:09.627Z,100109.16
2023-11-23T00:44:38.471Z,100103.34
2023-11-23T00:47:05.596Z,100104.22
2023-11-23T00:49:32.468Z,100099.03
2023-11-23T00:51:59.414Z,100095.50
2023-11-23T00:54:27.039Z,100098.03
2023-11-23T00:56:53.994Z,100103.16
2023-11-23T00:59:20.935Z,100099.69
2023-11-23T01:01:47.968Z,100094.56
2023-11-23T01:04:15.158Z,100109.09
2023-11-23T01:06:43.274Z,100104.03
2023-11-23T01:09:10.808Z,100122.75
2023-11-23T01:11:37.853Z,100117.69
2023-11-23T01:14:04.841Z,100110.06
2023-11-23T01:16:31.941Z,100099.44
2023-11-23T01:19:00.352Z,100094.19
2023-11-23T01:21:27.221Z,100117.91
2023-11-23T01:23:54.117Z,100117.94
2023-11-23T01:26:21.116Z,100117.06
2023-11-23T01:28:48.019Z,100099.13
2023-11-23T01:31:14.953Z,100110.34
2023-11-23T01:33:42.008Z,100114.50
2023-11-23T01:36:09.192Z,100119.59
2023-11-23T01:38:36.126Z,100110.19
2023-11-23T01:41:04.285Z,100117.88
2023-11-23T01:43:32.511Z,100100.84
2023-11-23T01:45:59.432Z,100101.53
2023-11-23T01:48:27.914Z,100081.97
2023-11-23T01:50:56.102Z,100093.84
2023-11-23T01:53:23.505Z,100066.53
2023-11-23T01:55:50.846Z,100079.34
2023-11-23T01:58:19.262Z,100095.63
2023-11-23T02:00:48.672Z,100093.25
2023-11-23T02:03:15.960Z,100081.22
2023-11-23T02:05:43.013Z,100083.78
2023-11-23T02:08:09.877Z,100076.84
2023-11-23T02:10:36.891Z,100061.44
2023-11-23T02:13:05.272Z,100063.97
2023-11-23T02:15:32.308Z,100047.00
2023-11-23T02:18:09.953Z,100068.19
2023-11-23T02:20:37.146Z,100059.63
2023-11-23T02:23:04.877Z,100060.69
2023-11-23T02:25:31.841Z,100059.06
2023-11-23T02:27:58.677Z,100059.75
2023-11-23T02:30:25.647Z,100022.16
2023-11-23T02:32:52.662Z,100063.84
2023-11-23T02:35:22.391Z,100057.78
2023-11-23T02:37:49.548Z,100056.19
2023-11-23T02:40:16.798Z,100054.44
2023-11-23T02:42:46.262Z,100047.63
2023-11-23T02:45:14.466Z,100052.03
2023-11-23T02:47:41.796Z,100045.06
2023-11-23T02:50:10.401Z,100032.47
2023-11-23T02:52:37.473Z,100047.75
2023-11-23T02:55:04.679Z,100052.94
2023-11-23T02:57:31.727Z,100055.63
2023-11-23T02:59:58.682Z,100045.31
2023-11-23T03:02:25.846Z,100072.63
2023-11-23T03:04:55.070Z,100059.81
2023-11-23T03:07:22.180Z,100056.47
2023-11-23T03:09:49.284Z,100070.09
2023-11-23T03:12:16.698Z,100070.00
2023-11-23T03:14:43.598Z,100059.78
2023-11-23T03:17:10.566Z,100079.34
2023-11-23T03:19:37.606Z,100083.00
2023-11-23T03:22:07.545Z,100074.50
2023-11-23T03:24:34.484Z,100071.53
2023-11-23T03:27:01.337Z,100052.78
2023-11-23T03:29:28.201Z,100069.75
2023-11-23T03:31:55.036Z,100080.78
2023-11-23T03:34:22.086Z,100051.72
2023-11-23T03:36:49.290Z,100062.75
2023-11-23T03:39:16.208Z,100074.63
2023-11-23T03:41:43.138Z,100063.63
2023-11-23T03:44:10.971Z,100072.13
2023-11-23T03:46:37.849Z,100061.88
2023-11-23T03:49:05.504Z,100076.41
2023-11-23T03:51:32.663Z,100078.00
2023-11-23T03:54:00.336Z,100066.88
2023-11-23T03:56:27.228Z,100076.31
2023-11-23T03:58:54.117Z,100069.47
2023-11-23T04:01:23.167Z,100046.47
2023-11-23T04:03:50.107Z,100062.59
2023-11-23T04:06:17.118Z,100059.13
2023-11-23T04:08:44.046Z,100068.69
2023-11-23T04:11:11.577Z,100042.59
2023-11-23T04:13:38.499Z,100056.94
2023-11-23T04:16:05.774Z,100054.38
2023-11-23T04:18:32.749Z,100045.00
2023-11-23T04:20:59.715Z,100039.84
2023-11-23T04:23:26.681Z,100043.16
2023-11-23T04:25:53.603Z,100043.16
2023-11-23T04:28:20.494Z,100049.16
2023-11-23T04:30:47.349Z,100043.09
2023-11-23T04:33:15.229Z,100037.25
2023-11-23T04:35:42.274Z,100054.16
2023-11-23T04:38:09.169Z,100055.81
2023-11-23T04:40:36.043Z,100049.78
2023-11-23T04:43:04.641Z,100031.97
2023-11-23T04:45:31.568Z,100055.19
2023-11-23T04:47:58.573Z,100050.09
2023-11-23T04:50:25.496Z,100045.03
2023-11-23T04:52:52.354Z,100037.34
2023-11-23T04:55:20.809Z,100034.72
2023-11-23T04:57:47.648Z,100034.63
2023-11-23T05:00:16.521Z,100035.47
2023-11-23T05:02:44.862Z,100038.00
2023-11-23T05:05:14.603Z,100034.59
2023-11-23T05:07:41.786Z,100036.25
2023-11-23T05:10:09.526Z,100039.69
2023-11-23T05:12:37.093Z,100047.38
2023-11-23T05:15:05.565Z,100031.25
2023-11-23T05:17:33.648Z,100038.06
2023-11-23T05:20:01.021Z,100032.13
2023-11-23T05:22:29.311Z,100022.69
2023-11-23T05:24:57.270Z,100010.66
2023-11-23T05:27:24.178Z,100011.50
2023-11-23T05:29:51.872Z,100031.94
2023-11-23T05:32:20.507Z,100031.28
2023-11-23T05:34:47.400Z,100037.22
2023-11-23T05:37:14.371Z,100020.03
2023-11-23T05:39:43.947Z,100024.28
2023-11-23T05:42:12.243Z,100044.88
2023-11-23T05:44:39.431Z,100048.28
2023-11-23T05:47:06.743Z,100034.63
2023-11-23T05:49:33.810Z,100036.44
2023-11-23T05:52:01.141Z,100050.84
2023-11-23T05:54:28.320Z,100055.91
2023-11-23T05:56:55.374Z,100044.09
2023-11-23T05:59:22.351Z,100047.44
2023-11-23T06:01:49.310Z,100060.19
2023-11-23T06:04:17.056Z,100056.88
2023-11-23T06:06:44.281Z,100050.03
2023-11-23T06:09:11.650Z,100046.66
2023-11-23T06:11:38.690Z,100053.50
2023-11-23T06:14:06.202Z,100050.00
2023-11-23T06:16:33.239Z,100052.66
2023-11-23T06:19:03.499Z,100055.31
2023-11-23T06:21:31.781Z,100063.78
2023-11-23T06:23:59.984Z,100066.34
2023-11-23T06:26:26.933Z,100070.63
2023-11-23T06:28:53.777Z,100044.19
2023-11-23T06:31:21.041Z,100071.38
2023-11-23T06:33:48.037Z,100039.84
2023-11-23T06:36:17.120Z,100084.22
2023-11-23T06:38:45.258Z,100074.91
2023-11-23T06:41:23.020Z,100079.94
2023-11-23T06:43:51.263Z,100079.13
2023-11-23T06:46:18.872Z,100067.22
2023-11-23T06:48:46.249Z,100060.34
2023-11-23T06:51:14.975Z,100085.91
2023-11-23T06:53:44.831Z,100069.69
2023-11-23T06:56:13.923Z,100079.09
2023-11-23T06:58:49.971Z,100062.06
2023-11-23T07:01:17.549Z,100074.00
2023-11-23T07:03:45.160Z,100066.28
2023-11-23T07:06:12.692Z,100063.75
2023-11-23T07:08:41.482Z,100073.19
2023-11-23T07:11:09.083Z,100056.94
2023-11-23T07:13:36.783Z,100058.69
2023-11-23T07:16:04.409Z,100047.56
2023-11-23T07:18:31.976Z,100051.06
2023-11-23T07:20:59.097Z,100044.13
2023-11-23T07:23:27.501Z,100050.91
2023-11-23T07:25:54.412Z,100043.19
2023-11-23T07:28:23.212Z,100055.91
2023-11-23T07:30:52.128Z,100060.19
2023-11-23T07:33:19.473Z,100051.72
2023-11-23T07:35:51.180Z,100066.16
2023-11-23T07:38:19.783Z,100068.69
2023-11-23T07:40:46.918Z,100071.19
2023-11-23T07:43:13.937Z,100061.88
2023-11-23T07:45:40.866Z,100064.50
2023-11-23T07:48:10.882Z,100079.81
2023-11-23T07:50:38.480Z,100077.19
2023-11-23T07:53:05.566Z,100064.38
2023-11-23T07:55:33.158Z,100070.31
2023-11-23T07:58:00.086Z,100067.75
2023-11-23T08:00:27.320Z,100070.28
2023-11-23T08:02:55.881Z,100047.28
2023-11-23T08:05:24.062Z,100058.34
2023-11-23T08:07:51.606Z,100066.84
2023-11-23T08:10:19.230Z,100066.78
2023-11-23T08:12:46.362Z,100051.41
2023-11-23T08:15:14.315Z,100056.47
2023-11-23T08:17:50.970Z,100047.03
2023-11-23T08:20:27.895Z,100039.31
2023-11-23T08:22:55.061Z,100035.97
2023-11-23T08:25:22.294Z,100045.41
2023-11-23T08:27:49.197Z,100037.59
2023-11-23T08:30:16.836Z,100048.69
2023-11-23T08:32:43.999Z,100062.31
2023-11-23T08:35:11.152Z,100063.13
2023-11-23T08:37:39.877Z,100054.63
2023-11-23T08:40:08.648Z,100066.53
2023-11-23T08:42:35.592Z,100062.25
2023-11-23T08:45:02.769Z,100056.31
2023-11-23T08:47:30.473Z,100048.53
2023-11-23T08:49:57.433Z,100040.81
2023-11-23T08:52:25.345Z,100047.59
2023-11-23T08:54:52.321Z,100033.88
2023-11-23T08:57:19.250Z,100038.97
2023-11-23T08:59:46.245Z,100043.31
2023-11-23T09:02:19.912Z,100037.22
2023-11-23T09:04:49.768Z,100028.69
2023-11-23T09:07:17.472Z,100006.50
2023-11-23T09:09:44.413Z,100006.44
2023-11-23T09:12:11.645Z,100009.69
2023-11-23T09:14:47.012Z,100001.16
2023-11-23T09:17:20.393Z,100004.59
2023-11-23T09:19:48.530Z,99999.53
2023-11-23T09:22:15.649Z,100005.41
2023-11-23T09:24:44.244Z,100001.16
2023-11-23T09:27:12.185Z,99991.81
2023-11-23T09:29:39.266Z,100007.13
2023-11-23T09:32:06.652Z,100001.13
2023-11-23T09:34:33.682Z,99996.84
2023-11-23T09:37:00.653Z,99978.94
2023-11-23T09:39:28.858Z,99988.25
2023-11-23T09:41:59.365Z,99974.50
2023-11-23T09:44:30.403Z,99958.28
2023-11-23T09:46:58.099Z,99948.81
2023-11-23T09:49:25.996Z,99950.63
2023-11-23T09:51:56.846Z,99956.56
2023-11-23T09:54:27.602Z,99942.91
2023-11-23T09:56:55.066Z,99935.88
2023-11-23T09:59:25.866Z,99946.16
2023-11-23T10:01:56.030Z,99943.53
2023-11-23T10:04:23.136Z,99938.38
2023-11-23T10:06:52.751Z,99903.47
2023-11-23T10:09:19.647Z,99929.84
2023-11-23T10:11:48.199Z,99923.91
2023-11-23T10:14:17.061Z,99923.63
2023-11-23T10:16:44.052Z,99910.00
2023-11-23T10:19:21.342Z,99914.31
2023-11-23T10:21:48.606Z,99906.59
2023-11-23T10:24:17.513Z,99908.22
2023-11-23T10:26:44.519Z,99886.94
2023-11-23T10:29:11.445Z,99900.53
2023-11-23T10:31:38.325Z,99898.91
2023-11-23T10:34:06.108Z,99897.91
2023-11-23T10:36:33.180Z,99886.69
2023-11-23T10:39:01.316Z,99872.13
2023-11-23T10:41:28.536Z,99869.50
2023-11-23T10:43:56.416Z,99857.53
2023-11-23T10:46:24.847Z,99869.28
2023-11-23T10:48:53.282Z,99866.78
2023-11-23T10:51:22.534Z,99869.34
2023-11-23T10:53:49.543Z,99858.16
2023-11-23T10:56:24.103Z,99842.91
2023-11-23T10:58:55.394Z,99849.63
2023-11-23T11:01:24.697Z,99834.16
2023-11-23T11:03:52.340Z,99835.88
2023-11-23T11:06:22.628Z,99833.22
2023-11-23T11:08:50.477Z,99828.91
2023-11-23T11:11:26.136Z,99831.25
2023-11-23T11:14:03.450Z,99819.25
2023-11-23T11:16:40.342Z,99825.31
2023-11-23T11:19:08.710Z,99823.53
2023-11-23T11:22:02.557Z,99812.28
2023-11-23T11:24:29.471Z,99796.81
2023-11-23T11:27:02.684Z,99804.41
2023-11-23T11:29:34.048Z,99802.72
2023-11-23T11:32:07.163Z,99793.22
2023-11-23T11:34:37.658Z,99805.22
2023-11-23T11:37:10.343Z,99800.06
2023-11-23T11:39:40.915Z,99795.78
2023-11-23T11:42:11.076Z,99801.44
2023-11-23T11:44:44.937Z,99801.31
2023-11-23T11:47:14.652Z,99806.44
2023-11-23T11:49:41.715Z,99796.88
2023-11-23T11:52:13.297Z,99800.16
2023-11-23T11:54:40.357Z,99795.03
2023-11-23T11:57:07.451Z,99805.91
2023-11-23T11:59:37.218Z,99783.88
2023-11-23T12:02:06.471Z,99778.53
2023-11-23T12:04:36.802Z,99786.16
2023-11-23T12:07:04.065Z,99774.22
2023-11-23T12:09:38.596Z,99768.13
2023-11-23T12:12:12.154Z,99768.81
2023-11-23T12:14:39.233Z,99758.31
2023-11-23T12:17:14.384Z,99748.22
2023-11-23T12:19:56.205Z,99741.97
2023-11-23T12:22:26.662Z,99730.09
2023-11-23T12:24:54.005Z,99709.59
2023-11-23T12:27:22.140Z,99730.94
2023-11-23T12:29:49.657Z,99708.44
2023-11-23T12:32:17.967Z,99720.31
2023-11-23T12:34:44.999Z,99718.53
2023-11-23T12:37:11.893Z,99697.06
2023-11-23T12:39:39.012Z,99704.63
2023-11-23T12:42:06.069Z,99694.31
2023-11-23T12:44:36.535Z,99680.66
2023-11-23T12:47:04.298Z,99665.94
2023-11-23T12:49:31.329Z,99664.00
2023-11-23T12:51:58.564Z,99643.47
2023-11-23T12:54:26.372Z,99661.22
2023-11-23T12:56:53.430Z,99677.34
2023-11-23T12:59:22.251Z,99676.38
2023-11-23T13:01:50.241Z,99679.75
2023-11-23T13:04:20.930Z,99668.53
2023-11-23T13:06:48.343Z,99648.75
2023-11-23T13:09:19.742Z,99660.56
2023-11-23T13:11:46.740Z,99655.38
2023-11-23T13:14:13.700Z,99648.53
2023-11-23T13:16:41.071Z,99623.06
2023-11-23T13:19:17.141Z,99630.66
2023-11-23T13:21:54.445Z,99648.34
2023-11-23T13:24:21.906Z,99648.22
2023-11-23T13:26:50.650Z,99624.19
2023-11-23T13:29:17.702Z,99635.38
2023-11-23T13:31:45.214Z,99626.88
2023-11-23T13:34:13.113Z,99631.16
2023-11-23T13:36:40.267Z,99618.28
2023-11-23T13:39:08.990Z,99630.00
2023-11-23T13:41:37.682Z,99634.13
2023-11-23T13:44:05.351Z,99633.03
2023-11-23T13:46:33.945Z,99621.13
2023-11-23T13:49:01.294Z,99614.44
2023-11-23T13:51:31.144Z,99644.25
2023-11-23T13:53:59.469Z,99630.41
2023-11-23T13:56:27.322Z,99617.31
2023-11-23T13:58:54.379Z,99601.88
2023-11-23T14:01:21.482Z,99585.56
2023-11-23T14:03:50.194Z,99582.34
2023-11-23T14:06:17.647Z,99606.75
2023-11-23T14:08:45.995Z,99611.97
2023-11-23T14:11:15.092Z,99598.19
2023-11-23T14:13:43.449Z,99593.94
2023-11-23T14:16:11.105Z,99586.88
2023-11-23T14:18:42.983Z,99589.53
2023-11-23T14:21:12.323Z,99581.78
2023-11-23T14:23:40.469Z,99572.25
2023-11-23T14:26:09.373Z,99566.38
2023-11-23T14:28:37.142Z,99582.56
2023-11-23T14:31:04.199Z,99573.09
2023-11-23T14:33:31.491Z,99579.72
2023-11-23T14:35:58.594Z,99575.31
2023-11-23T14:38:27.593Z,99562.47
2023-11-23T14:40:54.880Z,99545.31
2023-11-23T14:43:23.164Z,99554.72
2023-11-23T14:45:51.212Z,99547.53
2023-11-23T14:48:19.603Z,99548.44
2023-11-23T14:50:46.783Z,99534.84
2023-11-23T14:53:14.950Z,99543.19
2023-11-23T14:55:42.690Z,99538.94
2023-11-23T14:58:10.348Z,99545.72
2023-11-23T15:00:40.169Z,99516.16
2023-11-23T15:03:07.854Z,99546.56
2023-11-23T15:05:35.824Z,99540.47
2023-11-23T15:08:04.455Z,99550.72
2023-11-23T15:10:32.417Z,99530.97
2023-11-23T15:12:59.535Z,99549.00
2023-11-23T15:15:30.205Z,99553.25
2023-11-23T15:18:00.148Z,99544.97
2023-11-23T15:20:27.926Z,99563.66
2023-11-23T15:22:54.784Z,99572.28
2023-11-23T15:25:21.659Z,99563.94
2023-11-23T15:27:49.451Z,99560.38
2023-11-23T15:30:17.126Z,99561.13
2023-11-23T15:32:46.165Z,99542.31
2023-11-23T15:35:13.975Z,99534.63
2023-11-23T15:37:41.394Z,99536.25
2023-11-23T15:40:11.977Z,99544.69
2023-11-23T15:42:39.489Z,99531.78
2023-11-23T15:45:07.981Z,99534.38
2023-11-23T15:47:35.656Z,99543.00
2023-11-23T15:50:08.339Z,99537.91
2023-11-23T15:52:37.185Z,99553.25
2023-11-23T15:55:09.573Z,99555.97
2023-11-23T15:57:37.502Z,99528.50
2023-11-23T16:00:07.482Z,99528.53
2023-11-23T16:02:44.050Z,99522.72
2023-11-23T16:05:14.583Z,99509.94
2023-11-23T16:07:42.581Z,99511.56
2023-11-23T16:10:10.510Z,99502.19
2023-11-23T16:12:37.724Z,99504.88
2023-11-23T16:15:07.837Z,99495.22
2023-11-23T16:17:34.915Z,99484.13
2023-11-23T16:20:01.899Z,99478.16
2023-11-23T16:22:28.814Z,99469.88
2023-11-23T16:24:56.110Z,99474.13
2023-11-23T16:27:23.068Z,99461.44
2023-11-23T16:29:49.987Z,99468.75
2023-11-23T16:32:17.431Z,99456.38
2023-11-23T16:34:47.688Z,99470.75
2023-11-23T16:37:14.575Z,99481.81
2023-11-23T16:39:41.534Z,99469.66
2023-11-23T16:42:08.547Z,99473.97
2023-11-23T16:44:36.512Z,99467.72
2023-11-23T16:47:04.192Z,99469.41
2023-11-23T16:49:31.153Z,99463.75
2023-11-23T16:51:58.356Z,99480.91
2023-11-23T16:54:25.391Z,99465.25
2023-11-23T16:56:52.811Z,99435.53
2023-11-23T16:59:19.766Z,99453.38
2023-11-23T17:01:47.355Z,99455.91
2023-11-23T17:04:14.928Z,99454.13
2023-11-23T17:06:43.304Z,99447.19
2023-11-23T17:09:11.126Z,99443.09
2023-11-23T17:11:38.270Z,99428.81
2023-11-23T17:14:05.234Z,99435.00
2023-11-23T17:16:32.445Z,99441.78
2023-11-23T17:18:59.947Z,99433.16
2023-11-23T17:21:27.260Z,99426.22
2023-11-23T17:23:54.150Z,99421.25
2023-11-23T17:26:21.062Z,99428.84
2023-11-23T17:28:48.925Z,99415.38
2023-11-23T17:31:16.002Z,99412.09
2023-11-23T17:33:42.940Z,99416.13
2023-11-23T17:36:10.337Z,99410.31
2023-11-23T17:38:37.290Z,99414.56
2023-11-23T17:41:07.311Z,99420.16
2023-11-23T17:43:34.600Z,99416.59
2023-11-23T17:46:01.512Z,99414.81
2023-11-23T17:48:28.807Z,99404.78
2023-11-23T17:50:56.814Z,99401.41
2023-11-23T17:53:23.693Z,99413.00
2023-11-23T17:55:50.596Z,99405.44
2023-11-23T17:58:17.464Z,99397.84
2023-11-23T18:00:46.014Z,99409.56
2023-11-23T18:03:13.102Z,99394.34
2023-11-23T18:05:43.665Z,99404.78
2023-11-23T18:08:10.965Z,99391.88
2023-11-23T18:10:39.345Z,99389.31
2023-11-23T18:13:10.414Z,99374.56
2023-11-23T18:15:37.525Z,99357.69
2023-11-23T18:18:14.943Z,99367.06
2023-11-23T18:20:45.372Z,99346.75
2023-11-23T18:23:12.182Z,99364.53
2023-11-23T18:25:43.338Z,99345.63
2023-11-23T18:28:10.176Z,99367.81
2023-11-23T18:30:38.777Z,99357.38
2023-11-23T18:33:07.066Z,99347.03
2023-11-23T18:35:34.859Z,99341.88
2023-11-23T18:38:06.649Z,99325.59
2023-11-23T18:40:37.000Z,99346.78
2023-11-23T18:43:04.859Z,99320.22
2023-11-23T18:45:34.070Z,99319.28
2023-11-23T18:48:03.470Z,99338.88
2023-11-23T18:50:30.541Z,99343.31
2023-11-23T18:52:59.329Z,99323.72
2023-11-23T18:55:27.009Z,99330.25
2023-11-23T18:57:54.108Z,99320.03
2023-11-23T19:00:23.701Z,99315.63
2023-11-23T19:02:53.218Z,99314.75
2023-11-23T19:05:20.390Z,99317.00
2023-11-23T19:07:48.653Z,99326.97
2023-11-23T19:10:16.885Z,99331.31
2023-11-23T19:12:51.566Z,99320.19
2023-11-23T19:15:20.537Z,99315.84
2023-11-23T19:17:48.036Z,99304.13
2023-11-23T19:20:15.225Z,99321.78
2023-11-23T19:22:42.434Z,99321.72
2023-11-23T19:25:10.369Z,99303.72
2023-11-23T19:27:39.699Z,99295.06
2023-11-23T19:30:08.998Z,99283.81
2023-11-23T19:32:37.797Z,99279.47
2023-11-23T19:35:10.469Z,99283.22
2023-11-23T19:37:38.024Z,99272.13
2023-11-23T19:40:06.048Z,99267.59
2023-11-23T19:42:34.953Z,99272.75
2023-11-23T19:45:02.939Z,99262.31
2023-11-23T19:47:30.778Z,99272.75
2023-11-23T19:49:58.082Z,99276.19
2023-11-23T19:52:28.621Z,99270.19
2023-11-23T19:54:58.196Z,99255.03
2023-11-23T19:57:26.144Z,99253.41
2023-11-23T19:59:53.375Z,99229.59
2023-11-23T20:02:20.460Z,99231.28
2023-11-23T20:04:47.813Z,99235.63
2023-11-23T20:07:14.688Z,99220.28
2023-11-23T20:09:41.562Z,99231.56
2023-11-23T20:12:09.067Z,99234.81
2023-11-23T20:14:38.210Z,99226.22
2023-11-23T20:17:05.408Z,99232.28
2023-11-23T20:19:33.394Z,99216.81
2023-11-23T20:22:00.357Z,99225.91
2023-11-23T20:24:27.279Z,99225.13
2023-11-23T20:26:54.278Z,99216.59
2023-11-23T20:29:21.187Z,99235.00
2023-11-23T20:31:48.260Z,99227.75
2023-11-23T20:34:15.276Z,99234.53
2023-11-23T20:36:42.249Z,99209.84
2023-11-23T20:39:10.519Z,99203.78
2023-11-23T20:41:37.585Z,99213.00
2023-11-23T20:44:04.719Z,99212.09
2023-11-23T20:46:31.895Z,99208.56
2023-11-23T20:49:00.648Z,99201.22
2023-11-23T20:51:28.918Z,99202.31
2023-11-23T20:53:55.831Z,99181.81
2023-11-23T20:56:24.960Z,99177.25
2023-11-23T20:58:53.241Z,99156.00
2023-11-23T21:01:22.490Z,99161.03
2023-11-23T21:03:51.532Z,99158.31
2023-11-23T21:06:22.011Z,99146.25
2023-11-23T21:08:50.255Z,99133.03
2023-11-23T21:11:20.519Z,99131.19
2023-11-23T21:13:48.013Z,99119.94
2023-11-23T21:16:15.411Z,99116.16
2023-11-23T21:18:42.736Z,99103.91
2023-11-23T21:21:10.782Z,99101.88
2023-11-23T21:23:38.530Z,99107.88
2023-11-23T21:26:05.872Z,99106.09
2023-11-23T21:28:33.052Z,99110.97
2023-11-23T21:31:00.139Z,99109.03
2023-11-23T21:33:27.195Z,99100.31
2023-11-23T21:35:54.227Z,99088.31
2023-11-23T21:38:21.962Z,99102.75
2023-11-23T21:40:49.208Z,99100.16
2023-11-23T21:43:16.584Z,99096.47
2023-11-23T21:45:43.549Z,99085.41
2023-11-23T21:48:10.696Z,99073.41
2023-11-23T21:50:37.795Z,99073.41
2023-11-23T21:53:05.464Z,99069.91
2023-11-23T21:55:34.679Z,99051.19
2023-11-23T21:58:03.232Z,99064.47
2023-11-23T22:00:30.171Z,99061.28
2023-11-23T22:02:57.235Z,99053.47
2023-11-23T22:05:24.610Z,99038.81
2023-11-23T22:07:51.583Z,99019.19
2023-11-23T22:10:18.486Z,99001.09
2023-11-23T22:12:46.226Z,99003.69
2023-11-23T22:15:13.155Z,99001.31
2023-11-23T22:17:40.257Z,98984.28
2023-11-23T22:20:09.544Z,98988.81
2023-11-23T22:22:37.068Z,98995.50
2023-11-23T22:25:05.190Z,98986.34
2023-11-23T22:27:32.964Z,98971.94
2023-11-23T22:30:00.802Z,98966.94
2023-11-23T22:32:28.930Z,98956.63
2023-11-23T22:34:56.748Z,98967.72
2023-11-23T22:37:25.046Z,98957.41
2023-11-23T22:39:52.957Z,98967.38
2023-11-23T22:42:20.220Z,98952.72
2023-11-23T22:44:47.495Z,98936.75
2023-11-23T22:47:14.394Z,98963.13
2023-11-23T22:49:41.243Z,98957.16
2023-11-23T22:52:08.127Z,98944.91
2023-11-23T22:54:35.391Z,98950.88
2023-11-23T22:57:04.157Z,98955.66
2023-11-23T22:59:31.068Z,98954.81
2023-11-23T23:01:58.661Z,98949.53
2023-11-23T23:04:25.734Z,98948.88
2023-11-23T23:06:55.223Z,98947.47
2023-11-23T23:09:23.057Z,98934.44
2023-11-23T23:11:53.033Z,98953.69
2023-11-23T23:14:19.892Z,98958.13
2023-11-23T23:16:46.864Z,98947.00
2023-11-23T23:19:15.022Z,98955.09
2023-11-23T23:21:45.707Z,98954.09
2023-11-23T23:24:13.462Z,98946.34
2023-11-23T23:26:41.283Z,98916.75
2023-11-23T23:29:09.145Z,98937.81
2023-11-23T23:31:36.040Z,98911.06
2023-11-23T23:34:03.028Z,98926.13
2023-11-23T23:36:29.962Z,98928.13
2023-11-23T23:38:56.963Z,98928.19
2023-11-23T23:41:23.834Z,98908.56
2023-11-23T23:43:50.687Z,98913.53
2023-11-23T23:46:17.561Z,98911.72
2023-11-23T23:48:45.113Z,98885.44
2023-11-23T23:51:11.987Z,98891.31
2023-11-23T23:53:38.969Z,98892.03
2023-11-23T23:56:06.299Z,98884.03
2023-11-23T23:58:33.249Z,98871.97
